Time;durP1;ratioP1;P1;durP2;ratioP2;P2;SDS_P1;SDS_P2;PMS_P1;PMS_P2;Temp;Humidity;BMP_temperature;BMP_pressure;BME280_temperature;BME280_humidity;BME280_pressure;Samples;Min_cycle;Max_cycle;Signal;HPM_P1;HPM_P2
2022/09/15 00:01:46;;;;;;;5.22;1.98;;;24.70;54.50;;;;;;10481125;28;20143;-33
2022/09/15 00:06:49;;;;;;;1.45;0.65;;;24.60;53.90;;;;;;10482045;28;20079;-29
2022/09/15 00:11:51;;;;;;;1.90;1.10;;;25.20;55.20;;;;;;10480105;28;20079;-35
2022/09/15 00:16:53;;;;;;;0.93;0.82;;;24.40;55.00;;;;;;10479511;28;20040;-34
2022/09/15 00:21:56;;;;;;;;;;;25.30;54.20;;;;;;10478884;28;20069;-34
2022/09/15 00:26:57;;;;;;;1.45;1.02;;;24.90;53.70;;;;;;10478086;28;20119;-33
2022/09/15 00:31:59;;;;;;;;;;;24.80;53.70;;;;;;10479403;28;20113;-34
2022/09/15 00:37:02;;;;;;;1.65;1.00;;;24.80;53.70;;;;;;10478229;28;20396;-32
2022/09/15 00:42:05;;;;;;;1.88;1.30;;;24.90;53.60;;;;;;10474399;28;20416;-34
2022/09/15 00:47:07;;;;;;;4.97;1.48;;;24.90;53.60;;;;;;10475999;28;20133;-36
2022/09/15 00:52:14;;;;;;;3.20;1.10;;;24.70;53.70;;;;;;10474288;28;20055;-35
2022/09/15 00:57:19;;;;;;;3.08;1.30;;;24.70;53.90;;;;;;10479834;28;20076;-35
2022/09/15 01:02:22;;;;;;;2.80;1.40;;;24.70;53.90;;;;;;10478349;28;20054;-35
2022/09/15 01:07:30;;;;;;;4.75;1.20;;;24.30;54.50;;;;;;10476418;28;20044;-33
2022/09/15 01:12:32;;;;;;;2.08;1.42;;;24.40;54.30;;;;;;10475431;28;20604;-34
2022/09/15 01:17:42;;;;;;;2.83;1.50;;;24.70;53.90;;;;;;10475114;28;21179;-33
2022/09/15 01:23:00;;;;;;;1.10;1.00;;;24.70;53.60;;;;;;10478584;28;20045;-33
2022/09/15 01:28:29;;;;;;;2.35;0.90;;;25.00;54.00;;;;;;10477185;28;20133;-32
2022/09/15 01:33:37;;;;;;;2.45;1.08;;;24.80;53.60;;;;;;10478407;28;20044;-32
2022/09/15 01:38:50;;;;;;;1.90;0.85;;;24.70;53.60;;;;;;10478360;28;20102;-34
2022/09/15 01:43:58;;;;;;;2.70;1.17;;;24.80;53.60;;;;;;10476991;28;20478;-37
2022/09/15 01:49:03;;;;;;;3.10;1.10;;;24.70;53.60;;;;;;10476425;28;20964;-32
2022/09/15 01:54:07;;;;;;;1.48;0.82;;;24.70;53.50;;;;;;10473768;28;20135;-32
2022/09/15 01:59:09;;;;;;;2.65;0.98;;;24.70;53.60;;;;;;10476258;28;20456;-35
2022/09/15 02:04:17;;;;;;;1.13;0.80;;;24.90;53.70;;;;;;10475744;28;20076;-32
2022/09/15 02:09:24;;;;;;;3.10;1.00;;;24.60;53.90;;;;;;10475373;28;20772;-32
2022/09/15 02:14:42;;;;;;;0.98;0.77;;;24.60;53.80;;;;;;10476635;28;20478;-33
2022/09/15 02:19:49;;;;;;;4.80;1.27;;;24.50;54.30;;;;;;10483588;28;20138;-33
2022/09/15 02:24:57;;;;;;;2.67;0.93;;;24.40;53.90;;;;;;10486156;28;20127;-31
2022/09/15 02:30:06;;;;;;;1.75;1.23;;;24.40;53.90;;;;;;10483337;28;20060;-31
2022/09/15 02:35:10;;;;;;;2.47;0.73;;;24.60;53.90;;;;;;10483898;28;20120;-33
2022/09/15 02:40:12;;;;;;;1.58;0.80;;;24.20;53.80;;;;;;10485117;28;20322;-31
2022/09/15 02:45:14;;;;;;;1.25;0.65;;;24.60;53.80;;;;;;10483868;28;20106;-35
2022/09/15 02:50:17;;;;;;;;;;;24.60;53.70;;;;;;10484018;28;20074;-31
2022/09/15 02:55:20;;;;;;;2.25;0.70;;;24.60;53.80;;;;;;10484092;28;19950;-35
2022/09/15 03:00:21;;;;;;;1.23;0.50;;;24.60;53.80;;;;;;10484640;28;20133;-36
2022/09/15 03:05:25;;;;;;;;;;;24.60;53.80;;;;;;10483839;28;20568;-34
2022/09/15 03:10:28;;;;;;;1.58;0.73;;;24.60;53.90;;;;;;10483983;28;19982;-33
2022/09/15 03:15:29;;;;;;;1.48;0.40;;;24.60;53.80;;;;;;10481792;28;20451;-31
2022/09/15 03:20:32;;;;;;;;;;;24.50;53.90;;;;;;10484790;28;20053;-32
2022/09/15 03:25:34;;;;;;;1.73;0.50;;;24.50;53.80;;;;;;10481936;28;20036;-32
2022/09/15 03:30:36;;;;;;;1.42;0.60;;;24.50;53.80;;;;;;10480791;28;20139;-33
2022/09/15 03:35:39;;;;;;;;;;;24.90;54.10;;;;;;10483556;28;20540;-35
2022/09/15 03:40:42;;;;;;;1.20;0.40;;;24.30;53.90;;;;;;10482475;28;19975;-30
2022/09/15 03:45:44;;;;;;;1.67;0.60;;;24.40;54.00;;;;;;10481730;28;20056;-33
2022/09/15 03:50:47;;;;;;;2.10;0.60;;;24.00;54.30;;;;;;10483526;28;20045;-30
2022/09/15 03:55:49;;;;;;;1.45;0.50;;;24.20;54.40;;;;;;10482216;28;20056;-33
2022/09/15 04:00:51;;;;;;;1.30;0.60;;;24.30;54.20;;;;;;10481608;28;20555;-31
2022/09/15 04:05:54;;;;;;;;;;;24.30;54.00;;;;;;10482436;28;20110;-30
2022/09/15 04:10:56;;;;;;;2.92;0.32;;;24.40;53.90;;;;;;10480375;28;20043;-33
2022/09/15 04:15:59;;;;;;;2.20;0.50;;;24.40;53.80;;;;;;10481471;28;20148;-32
2022/09/15 04:21:05;;;;;;;2.58;0.47;;;24.20;53.90;;;;;;10480667;28;20048;-31
2022/09/15 04:26:11;;;;;;;0.93;0.40;;;24.40;53.80;;;;;;10480081;28;20115;-33
2022/09/15 04:31:15;;;;;;;1.17;0.40;;;24.40;53.70;;;;;;10477240;28;20139;-32
2022/09/15 04:36:20;;;;;;;1.45;0.63;;;24.20;54.00;;;;;;10479135;28;20131;-32
2022/09/15 04:41:23;;;;;;;1.05;0.47;;;24.30;54.20;;;;;;10477636;28;20508;-31
2022/09/15 04:46:25;;;;;;;0.60;0.50;;;24.20;53.50;;;;;;10476432;28;20131;-38
2022/09/15 04:51:28;;;;;;;;;;;24.30;54.00;;;;;;10477435;28;20044;-35
2022/09/15 04:56:29;;;;;;;2.13;0.45;;;24.40;53.80;;;;;;10474418;28;20399;-34
2022/09/15 05:01:32;;;;;;;;;;;24.10;53.70;;;;;;10478448;28;20136;-27
2022/09/15 05:06:36;;;;;;;1.10;0.57;;;24.30;53.90;;;;;;10470440;28;20054;-32
2022/09/15 05:11:38;;;;;;;3.42;0.50;;;24.30;53.80;;;;;;10473284;28;20041;-37
2022/09/15 05:16:40;;;;;;;2.78;0.50;;;24.20;54.00;;;;;;10472173;28;20048;-33
2022/09/15 05:21:43;;;;;;;;;;;24.00;54.20;;;;;;10473485;28;20686;-29
2022/09/15 05:26:45;;;;;;;1.23;0.65;;;25.00;54.30;;;;;;10473208;28;19960;-35
2022/09/15 05:31:46;;;;;;;2.47;0.65;;;24.10;54.10;;;;;;10475339;28;20051;-33
2022/09/15 05:36:49;;;;;;;;;;;24.10;54.30;;;;;;10472601;28;20229;-29
2022/09/15 05:41:51;;;;;;;1.52;0.70;;;24.10;53.70;;;;;;10473952;28;20019;-32
2022/09/15 05:46:53;;;;;;;;;;;24.30;53.80;;;;;;10473678;28;20076;-33
2022/09/15 05:51:56;;;;;;;5.93;1.52;;;24.20;54.10;;;;;;10473266;28;19963;-31
2022/09/15 05:56:58;;;;;;;2.60;0.90;;;24.50;53.80;;;;;;10471728;28;20163;-32
2022/09/15 06:02:00;;;;;;;;;;;24.20;54.00;;;;;;10470733;28;20408;-31
2022/09/15 06:07:03;;;;;;;3.13;0.80;;;23.70;55.30;;;;;;10472630;28;20015;-35
2022/09/15 06:12:05;;;;;;;7.10;0.90;;;23.80;56.30;;;;;;10473930;28;20128;-29
2022/09/15 06:17:07;;;;;;;2.08;0.68;;;22.50;56.80;;;;;;10472019;28;20135;-29
2022/09/15 06:22:10;;;;;;;;;;;23.60;55.60;;;;;;10474481;28;20048;-36
2022/09/15 06:27:12;;;;;;;9.18;0.98;;;23.90;54.90;;;;;;10474148;28;19920;-37
2022/09/15 06:32:13;;;;;;;;;;;24.20;53.90;;;;;;10475507;28;20551;-32
2022/09/15 06:37:16;;;;;;;4.57;0.60;;;24.10;54.10;;;;;;10472261;28;19920;-33
2022/09/15 06:42:18;;;;;;;0.85;0.40;;;23.50;51.70;;;;;;10472403;28;20834;-33
2022/09/15 06:47:20;;;;;;;6.93;0.75;;;23.50;55.00;;;;;;10469019;28;20082;-29
2022/09/15 06:52:23;;;;;;;5.60;0.77;;;23.40;51.30;;;;;;10470648;28;20366;-35
2022/09/15 06:57:25;;;;;;;3.20;0.52;;;22.60;57.40;;;;;;10471178;28;20143;-32
2022/09/15 07:02:26;;;;;;;;;;;23.70;55.00;;;;;;10469905;28;20135;-38
2022/09/15 07:07:29;;;;;;;3.00;0.90;;;23.70;55.00;;;;;;10473383;28;20053;-34
2022/09/15 07:12:31;;;;;;;5.80;0.63;;;23.60;54.70;;;;;;10479219;28;20075;-37
2022/09/15 07:17:33;;;;;;;;;;;23.90;54.70;;;;;;10478108;28;20056;-32
2022/09/15 07:22:37;;;;;;;3.15;0.50;;;23.30;55.30;;;;;;10478719;28;20630;-39
2022/09/15 07:27:38;;;;;;;6.75;1.08;;;23.20;55.40;;;;;;10479871;28;20049;-38
2022/09/15 07:32:40;;;;;;;;;;;23.40;54.40;;;;;;10478242;28;20068;-35
2022/09/15 07:37:44;;;;;;;2.20;0.50;;;23.30;55.10;;;;;;10474920;28;19928;-34
2022/09/15 07:42:46;;;;;;;4.68;1.30;;;23.50;55.10;;;;;;10476085;28;20058;-36
2022/09/15 07:47:47;;;;;;;5.88;1.13;;;23.20;54.50;;;;;;10475747;28;20520;-31
2022/09/15 07:52:51;;;;;;;2.42;0.70;;;23.30;55.10;;;;;;10479160;28;20223;-32
2022/09/15 07:57:57;;;;;;;8.82;1.10;;;22.90;57.00;;;;;;10480033;28;20044;-34
2022/09/15 08:02:59;;;;;;;2.00;0.50;;;22.80;55.50;;;;;;10478118;28;20397;-32
2022/09/15 08:08:03;;;;;;;3.78;0.90;;;23.40;54.50;;;;;;10479230;28;20051;-33
2022/09/15 08:13:05;;;;;;;7.25;0.75;;;21.50;58.90;;;;;;10476541;28;20135;-34
2022/09/15 08:18:06;;;;;;;;;;;21.40;60.70;;;;;;10477463;28;20052;-34
2022/09/15 08:23:10;;;;;;;2.67;0.77;;;22.60;56.40;;;;;;10477393;28;19924;-34
2022/09/15 08:28:12;;;;;;;3.58;0.55;;;23.70;54.60;;;;;;10476669;28;20481;-34
2022/09/15 08:33:14;;;;;;;;;;;24.00;53.60;;;;;;10476083;28;20493;-35
2022/09/15 08:38:17;;;;;;;5.72;0.50;;;24.50;53.80;;;;;;10476179;28;19959;-28
2022/09/15 08:43:23;;;;;;;6.18;0.90;;;24.30;53.40;;;;;;10477708;28;20139;-33
2022/09/15 08:48:31;;;;;;;4.32;0.30;;;23.80;52.60;;;;;;10476020;28;20123;-33
2022/09/15 08:53:37;;;;;;;3.10;0.50;;;22.90;49.20;;;;;;10478527;28;20627;-33
2022/09/15 08:58:39;;;;;;;6.75;0.50;;;23.30;52.50;;;;;;10477446;28;20454;-39
2022/09/15 09:03:52;;;;;;;5.88;1.00;;;23.90;54.10;;;;;;10479688;28;20401;-32
2022/09/15 09:09:11;;;;;;;1.77;0.63;;;23.50;54.10;;;;;;10476823;28;20143;-35
2022/09/15 09:14:22;;;;;;;11.60;1.00;;;24.00;53.50;;;;;;10478211;28;20102;-32
2022/09/15 09:19:53;;;;;;;2.17;0.30;;;24.20;54.90;;;;;;10478033;28;20175;-34
2022/09/15 09:24:59;;;;;;;2.80;0.70;;;24.70;53.30;;;;;;10478514;28;20052;-33
2022/09/15 09:30:06;;;;;;;3.15;0.40;;;24.20;53.20;;;;;;10478580;28;20135;-31
2022/09/15 09:35:18;;;;;;;7.80;0.50;;;24.30;52.40;;;;;;10476732;28;20520;-33
2022/09/15 09:40:22;;;;;;;2.05;0.68;;;23.90;53.70;;;;;;10477356;28;20051;-33
2022/09/15 09:45:24;;;;;;;3.03;0.82;;;23.00;52.80;;;;;;10478051;28;20103;-36
2022/09/15 09:50:37;;;;;;;3.00;0.85;;;22.80;50.30;;;;;;10478767;28;20151;-32
2022/09/15 09:55:42;;;;;;;2.55;0.63;;;23.40;53.30;;;;;;10477245;28;20045;-32
2022/09/15 10:00:44;;;;;;;13.73;1.85;;;23.70;53.00;;;;;;10476404;28;20135;-31
2022/09/15 10:06:00;;;;;;;6.32;0.70;;;21.90;53.90;;;;;;10476370;28;20135;-30
2022/09/15 10:11:06;;;;;;;13.25;0.80;;;22.50;55.30;;;;;;10476741;28;20063;-31
2022/09/15 10:16:08;;;;;;;4.03;0.57;;;22.80;52.90;;;;;;10477201;28;20059;-36
2022/09/15 10:21:11;;;;;;;;;;;22.10;54.80;;;;;;10475250;28;20135;-37
2022/09/15 10:26:30;;;;;;;2.47;0.50;;;22.70;51.10;;;;;;10478062;28;19966;-32
2022/09/15 10:31:33;;;;;;;3.47;0.50;;;22.80;49.60;;;;;;10477934;28;20045;-29
2022/09/15 10:36:35;;;;;;;5.82;0.65;;;22.60;51.70;;;;;;10477064;28;20049;-34
2022/09/15 10:41:44;;;;;;;2.10;1.00;;;23.50;53.50;;;;;;10481840;28;20048;-31
2022/09/15 10:46:55;;;;;;;4.70;0.70;;;24.10;51.80;;;;;;10484133;28;20106;-31
2022/09/15 10:52:08;;;;;;;2.28;0.68;;;23.20;48.60;;;;;;10484483;28;20048;-31
2022/09/15 10:57:25;;;;;;;5.95;0.70;;;23.10;50.50;;;;;;10484736;28;20132;-29
2022/09/15 11:02:54;;;;;;;5.60;0.70;;;22.80;55.20;;;;;;10483366;28;20086;-31
2022/09/15 11:08:30;;;;;;;1.83;0.68;;;22.30;56.00;;;;;;10484298;28;20055;-29
2022/09/15 11:13:43;;;;;;;3.85;0.82;;;22.70;53.80;;;;;;10480950;28;20387;-31
2022/09/15 11:19:00;;;;;;;6.72;0.70;;;22.40;53.90;;;;;;10480343;28;20165;-32
2022/09/15 11:24:23;;;;;;;4.43;0.85;;;22.40;54.80;;;;;;10482933;28;20401;-34
2022/09/15 11:29:31;;;;;;;5.90;0.70;;;23.00;51.40;;;;;;10478202;28;20135;-35
2022/09/15 11:34:38;;;;;;;4.03;1.00;;;22.10;51.00;;;;;;10481273;28;20141;-30
2022/09/15 11:39:47;;;;;;;4.53;0.70;;;22.60;52.20;;;;;;10466003;28;20461;-37
2022/09/15 11:44:50;;;;;;;3.38;0.90;;;21.50;53.70;;;;;;10471507;28;20059;-34
2022/09/15 11:49:57;;;;;;;4.15;0.80;;;21.40;54.60;;;;;;10476826;28;20422;-32
2022/09/15 11:55:04;;;;;;;8.65;1.35;;;21.00;52.60;;;;;;10474690;28;20629;-31
2022/09/15 12:00:12;;;;;;;4.35;1.17;;;20.40;53.70;;;;;;10476419;28;20102;-32
2022/09/15 12:05:19;;;;;;;9.35;1.13;;;21.40;55.70;;;;;;10471187;28;20087;-33
2022/09/15 12:10:25;;;;;;;3.60;0.88;;;21.70;55.80;;;;;;10474816;28;20048;-29
2022/09/15 12:15:29;;;;;;;6.47;1.13;;;21.30;56.20;;;;;;10474916;28;20060;-31
2022/09/15 12:20:37;;;;;;;5.43;0.80;;;21.50;53.50;;;;;;10478258;28;20529;-36
2022/09/15 12:25:47;;;;;;;5.65;0.85;;;22.00;56.10;;;;;;10477747;28;20041;-42
2022/09/15 12:31:11;;;;;;;5.55;0.90;;;21.30;56.00;;;;;;10476509;28;20051;-32
2022/09/15 12:36:38;;;;;;;8.15;0.88;;;21.40;51.80;;;;;;10474856;28;20048;-34
2022/09/15 12:41:46;;;;;;;4.55;0.52;;;21.80;56.30;;;;;;10478128;28;20123;-33
2022/09/15 12:46:54;;;;;;;3.17;0.60;;;22.30;53.90;;;;;;10467937;28;20177;-34
2022/09/15 12:51:58;;;;;;;4.95;0.75;;;21.50;52.90;;;;;;10475920;28;20614;-31
2022/09/15 12:57:02;;;;;;;6.63;1.05;;;22.10;52.60;;;;;;10475200;28;20094;-37
2022/09/15 13:02:42;;;;;;;7.10;0.90;;;22.10;51.80;;;;;;10474501;28;20056;-41
2022/09/15 13:07:56;;;;;;;9.30;0.80;;;22.30;51.80;;;;;;10469880;28;20057;-40
2022/09/15 13:13:19;;;;;;;7.50;0.98;;;21.70;53.50;;;;;;10470702;28;20127;-36
2022/09/15 13:18:23;;;;;;;4.90;1.23;;;21.60;53.90;;;;;;10469584;28;20045;-38
2022/09/15 13:23:28;;;;;;;5.13;0.60;;;20.90;58.90;;;;;;10470093;28;20040;-34
2022/09/15 13:28:31;;;;;;;6.72;1.00;;;21.70;56.60;;;;;;10468002;28;20752;-29
2022/09/15 13:33:52;;;;;;;4.53;0.52;;;20.60;57.00;;;;;;10471547;28;20056;-34
2022/09/15 13:39:07;;;;;;;2.53;0.67;;;20.90;55.00;;;;;;10471123;28;20540;-33
2022/09/15 13:44:46;;;;;;;4.35;0.60;;;22.10;52.90;;;;;;10468451;28;20105;-34
2022/09/15 13:49:52;;;;;;;4.90;0.50;;;21.10;54.40;;;;;;10470325;28;20113;-33
2022/09/15 13:55:18;;;;;;;4.78;0.93;;;22.80;53.50;;;;;;10472937;28;20117;-29
2022/09/15 14:00:23;;;;;;;6.25;0.80;;;21.70;52.90;;;;;;10473960;28;20067;-32
2022/09/15 14:05:29;;;;;;;3.28;0.88;;;22.30;52.30;;;;;;10459508;28;20470;-33
2022/09/15 14:10:36;;;;;;;5.95;0.57;;;22.00;55.10;;;;;;10470143;28;20146;-33
2022/09/15 14:15:39;;;;;;;3.85;0.70;;;21.80;54.60;;;;;;10477624;28;20059;-32
2022/09/15 14:20:42;;;;;;;5.00;0.85;;;21.30;55.50;;;;;;10485866;28;20075;-32
2022/09/15 14:25:45;;;;;;;4.30;0.80;;;21.40;56.30;;;;;;10483870;28;20052;-37
2022/09/15 14:30:48;;;;;;;4.38;0.93;;;21.70;56.30;;;;;;10484874;28;20049;-33
2022/09/15 14:35:51;;;;;;;1.67;0.30;;;21.30;57.50;;;;;;10485030;28;20059;-29
2022/09/15 14:40:55;;;;;;;6.13;0.95;;;22.40;55.10;;;;;;10484741;28;20044;-31
2022/09/15 14:46:10;;;;;;;5.65;0.70;;;20.00;61.20;;;;;;10481515;28;20511;-32
2022/09/15 14:51:19;;;;;;;3.78;0.60;;;20.80;59.60;;;;;;10483712;28;20451;-31
2022/09/15 14:56:24;;;;;;;3.60;0.70;;;20.50;59.90;;;;;;10484340;28;20438;-33
2022/09/15 15:02:15;;;;;;;5.50;1.02;;;21.10;59.00;;;;;;10493588;28;20048;-36
2022/09/15 15:07:23;;;;;;;4.53;0.70;;;21.10;58.30;;;;;;10480066;28;20501;-38
2022/09/15 15:12:28;;;;;;;5.32;0.65;;;20.50;59.40;;;;;;10500380;28;20072;-36
2022/09/15 15:17:35;;;;;;;4.03;0.70;;;21.00;57.10;;;;;;10509938;28;20040;-36
2022/09/15 15:22:39;;;;;;;2.15;0.60;;;22.10;54.20;;;;;;10528345;28;20052;-32
2022/09/15 15:27:42;;;;;;;2.35;0.80;;;21.20;51.50;;;;;;10522834;28;20043;-34
2022/09/15 15:32:44;;;;;;;5.82;1.00;;;21.20;56.20;;;;;;10525741;28;20432;-34
2022/09/15 15:37:48;;;;;;;5.50;0.80;;;22.40;53.80;;;;;;10522787;28;20524;-40
2022/09/15 15:42:55;;;;;;;8.13;0.68;;;21.70;55.40;;;;;;10509741;28;20052;-36
2022/09/15 15:47:57;;;;;;;5.55;1.00;;;21.50;53.90;;;;;;10505086;28;20160;-33
2022/09/15 15:53:01;;;;;;;6.75;0.77;;;21.60;53.80;;;;;;10520369;28;20062;-34
2022/09/15 15:58:03;;;;;;;5.47;0.75;;;21.50;55.20;;;;;;10522584;28;20396;-34
2022/09/15 16:03:05;;;;;;;3.65;0.70;;;22.00;55.10;;;;;;10521734;28;20126;-33
2022/09/15 16:08:15;;;;;;;3.20;0.70;;;21.50;53.80;;;;;;10519224;28;20111;-38
2022/09/15 16:13:19;;;;;;;3.83;0.70;;;21.10;52.40;;;;;;10487123;28;20147;-29
2022/09/15 16:18:21;;;;;;;3.90;0.50;;;20.30;56.60;;;;;;10516490;28;20358;-35
2022/09/15 16:23:24;;;;;;;5.78;0.98;;;22.00;50.50;;;;;;10514003;28;20056;-33
2022/09/15 16:28:27;;;;;;;2.65;0.95;;;21.10;51.70;;;;;;10523299;28;20127;-32
2022/09/15 16:33:29;;;;;;;3.38;0.63;;;21.40;54.60;;;;;;10513458;28;20389;-35
2022/09/15 16:38:33;;;;;;;4.28;0.73;;;20.50;58.60;;;;;;10517784;28;20110;-34
2022/09/15 16:43:35;;;;;;;3.85;0.85;;;20.50;55.70;;;;;;10515748;28;20070;-36
2022/09/15 16:48:37;;;;;;;3.78;0.50;;;21.90;56.00;;;;;;10517027;28;20082;-36
2022/09/15 16:53:41;;;;;;;3.72;1.08;;;20.50;59.10;;;;;;10517520;28;20729;-35
2022/09/15 16:58:43;;;;;;;2.55;0.60;;;21.20;56.40;;;;;;10518783;28;20076;-37
2022/09/15 17:03:45;;;;;;;5.53;0.55;;;20.70;58.50;;;;;;10514274;28;20168;-33
2022/09/15 17:08:48;;;;;;;2.33;0.52;;;20.00;55.00;;;;;;10511229;28;20420;-34
2022/09/15 17:13:51;;;;;;;6.35;1.08;;;20.10;58.80;;;;;;10515267;28;20054;-37
2022/09/15 17:18:52;;;;;;;5.95;0.73;;;19.90;57.40;;;;;;10518104;28;20083;-33
2022/09/15 17:23:55;;;;;;;3.75;0.80;;;21.20;56.70;;;;;;10518636;28;20158;-36
2022/09/15 17:28:57;;;;;;;5.80;0.65;;;20.90;56.50;;;;;;10518516;28;20052;-34
2022/09/15 17:33:59;;;;;;;6.40;2.28;;;21.60;55.10;;;;;;10518059;28;20098;-37
2022/09/15 17:39:03;;;;;;;5.78;0.77;;;20.90;56.90;;;;;;10519363;28;20455;-40
2022/09/15 17:44:08;;;;;;;4.85;0.82;;;20.50;56.70;;;;;;10520318;28;20056;-37
2022/09/15 17:49:10;;;;;;;6.75;1.08;;;20.50;57.20;;;;;;10518047;28;20475;-37
2022/09/15 17:54:13;;;;;;;;;;;20.10;58.90;;;;;;10517462;28;20654;-36
2022/09/15 17:59:15;;;;;;;6.93;1.02;;;21.20;57.80;;;;;;10513593;28;20022;-37
2022/09/15 18:04:17;;;;;;;6.65;0.93;;;21.00;56.60;;;;;;10519967;28;20052;-39
2022/09/15 18:09:20;;;;;;;3.78;0.95;;;20.10;57.80;;;;;;10518755;28;20127;-34
2022/09/15 18:14:22;;;;;;;4.03;0.57;;;21.30;56.10;;;;;;10518858;28;20118;-34
2022/09/15 18:19:24;;;;;;;7.55;0.82;;;21.00;57.40;;;;;;10519261;28;20044;-36
2022/09/15 18:24:28;;;;;;;6.65;0.88;;;19.80;60.20;;;;;;10513840;28;20046;-33
2022/09/15 18:29:30;;;;;;;7.25;0.90;;;21.00;56.90;;;;;;10519759;28;20051;-34
2022/09/15 18:34:32;;;;;;;4.47;0.90;;;21.20;53.50;;;;;;10518470;28;20515;-31
2022/09/15 18:39:36;;;;;;;;;;;21.10;58.20;;;;;;10519105;28;20062;-35
2022/09/15 18:44:38;;;;;;;4.63;0.90;;;20.00;60.60;;;;;;10519034;28;19928;-33
2022/09/15 18:49:39;;;;;;;4.43;0.60;;;21.10;58.50;;;;;;10517213;28;20064;-35
2022/09/15 18:54:43;;;;;;;3.28;0.90;;;22.50;54.30;;;;;;10518429;28;20046;-33
2022/09/15 18:59:46;;;;;;;13.00;1.00;;;22.60;53.60;;;;;;10516403;28;20146;-33
2022/09/15 19:04:48;;;;;;;3.97;0.80;;;23.10;52.70;;;;;;10522323;28;20056;-33
2022/09/15 19:09:51;;;;;;;5.03;0.98;;;22.50;54.70;;;;;;10517598;28;20052;-39
2022/09/15 19:14:53;;;;;;;3.22;0.47;;;22.60;55.30;;;;;;10519499;28;20477;-34
2022/09/15 19:19:55;;;;;;;8.93;0.73;;;22.30;54.70;;;;;;10520732;28;20445;-38
2022/09/15 19:24:58;;;;;;;7.95;0.90;;;21.50;56.90;;;;;;10518551;28;20463;-37
2022/09/15 19:30:01;;;;;;;5.18;1.35;;;21.20;56.10;;;;;;10515845;28;20690;-40
2022/09/15 19:35:03;;;;;;;7.32;1.05;;;21.90;55.90;;;;;;10512235;28;20150;-38
2022/09/15 19:40:08;;;;;;;6.57;0.80;;;21.00;56.80;;;;;;10516605;28;20056;-40
2022/09/15 19:45:11;;;;;;;6.18;0.73;;;22.40;54.60;;;;;;10520111;28;20048;-38
2022/09/15 19:50:13;;;;;;;10.20;1.08;;;23.20;53.10;;;;;;10520896;28;20118;-39
2022/09/15 19:55:17;;;;;;;3.15;0.80;;;21.70;54.20;;;;;;10519874;28;20148;-38
2022/09/15 20:00:18;;;;;;;3.83;1.15;;;21.70;55.70;;;;;;10514983;28;20060;-38
2022/09/15 20:05:20;;;;;;;2.60;0.60;;;22.10;54.90;;;;;;10515507;28;20493;-32
2022/09/15 20:10:24;;;;;;;3.63;0.65;;;22.20;55.00;;;;;;10519043;28;20189;-38
2022/09/15 20:15:26;;;;;;;6.47;0.73;;;22.80;53.90;;;;;;10515153;28;22065;-39
2022/09/15 20:20:29;;;;;;;10.50;0.90;;;21.70;56.30;;;;;;10516260;28;20059;-34
2022/09/15 20:25:32;;;;;;;14.02;1.33;;;20.90;56.50;;;;;;10510574;28;20497;-33
2022/09/15 20:30:34;;;;;;;4.95;0.80;;;18.40;63.20;;;;;;10504097;28;20131;-39
2022/09/15 20:35:35;;;;;;;5.20;0.95;;;21.00;58.00;;;;;;10511283;28;20118;-34
2022/09/15 20:40:38;;;;;;;2.65;0.60;;;20.40;59.60;;;;;;10507633;28;20059;-37
2022/09/15 20:45:40;;;;;;;3.28;0.70;;;22.60;54.10;;;;;;10514606;28;20496;-35
2022/09/15 20:50:42;;;;;;;5.43;0.60;;;22.50;53.20;;;;;;10512413;28;20440;-34
2022/09/15 20:55:50;;;;;;;3.10;0.77;;;21.40;56.40;;;;;;10518485;28;20424;-35
2022/09/15 21:01:01;;;;;;;7.15;0.93;;;21.80;55.50;;;;;;10507510;28;20113;-38
2022/09/15 21:06:05;;;;;;;3.25;0.77;;;20.90;55.40;;;;;;10512614;28;20090;-34
2022/09/15 21:11:10;;;;;;;1.00;0.50;;;22.10;55.30;;;;;;10513583;28;20066;-31
2022/09/15 21:16:14;;;;;;;5.18;1.13;;;21.80;54.40;;;;;;10509516;28;20394;-33
2022/09/15 21:21:18;;;;;;;4.50;0.88;;;20.20;58.00;;;;;;10512076;28;20044;-37
2022/09/15 21:26:23;;;;;;;3.08;0.70;;;19.80;58.20;;;;;;10514062;28;20139;-33
2022/09/15 21:31:27;;;;;;;2.58;0.57;;;21.80;54.10;;;;;;10509493;28;20115;-32
2022/09/15 21:36:30;;;;;;;3.67;0.60;;;21.70;55.50;;;;;;10507875;28;20133;-39
2022/09/15 21:41:33;;;;;;;2.33;0.65;;;21.90;53.60;;;;;;10509517;28;20048;-35
2022/09/15 21:46:35;;;;;;;2.78;0.68;;;22.10;54.20;;;;;;10485021;28;20146;-30
2022/09/15 21:51:37;;;;;;;14.02;1.65;;;20.60;56.50;;;;;;10512191;28;20052;-34
2022/09/15 21:56:40;;;;;;;1.85;0.50;;;19.80;53.50;;;;;;10511936;28;20050;-37
2022/09/15 22:01:42;;;;;;;5.85;1.27;;;19.80;59.00;;;;;;10511011;28;20036;-36
2022/09/15 22:06:45;;;;;;;2.75;0.80;;;21.20;54.50;;;;;;10511091;28;20142;-33
2022/09/15 22:11:49;;;;;;;7.15;0.77;;;19.70;59.20;;;;;;10508626;28;21071;-33
2022/09/15 22:16:50;;;;;;;2.67;0.65;;;20.60;56.70;;;;;;10509643;28;20140;-33
2022/09/15 22:21:52;;;;;;;2.50;0.50;;;20.00;57.00;;;;;;10506014;28;20083;-33
2022/09/15 22:26:56;;;;;;;5.85;1.02;;;20.80;54.40;;;;;;10506151;28;20477;-36
2022/09/15 22:31:57;;;;;;;3.92;0.63;;;20.60;53.90;;;;;;10498183;28;20044;-34
2022/09/15 22:36:59;;;;;;;3.75;0.68;;;20.60;54.80;;;;;;10514872;28;20547;-37
2022/09/15 22:42:02;;;;;;;1.20;0.50;;;20.10;52.10;;;;;;10518931;28;20078;-38
2022/09/15 22:47:05;;;;;;;2.13;0.38;;;20.00;58.10;;;;;;10520390;28;20113;-37
2022/09/15 22:52:06;;;;;;;10.80;0.93;;;21.30;54.60;;;;;;10516529;28;20047;-35
2022/09/15 22:57:10;;;;;;;2.70;0.70;;;19.90;57.00;;;;;;10519398;28;20052;-35
2022/09/15 23:02:12;;;;;;;2.58;0.65;;;21.10;54.10;;;;;;10519358;28;20045;-37
2022/09/15 23:07:14;;;;;;;4.85;0.68;;;21.50;53.40;;;;;;10521213;28;20135;-37
2022/09/15 23:12:17;;;;;;;;;;;20.90;54.00;;;;;;10524344;28;20122;-34
2022/09/15 23:17:19;;;;;;;4.75;0.80;;;20.00;55.00;;;;;;10522151;28;20046;-36
2022/09/15 23:22:21;;;;;;;3.67;0.70;;;20.10;52.40;;;;;;10524448;28;20072;-33
2022/09/15 23:27:24;;;;;;;;;;;20.30;53.80;;;;;;10523865;28;20467;-34
2022/09/15 23:32:26;;;;;;;2.15;0.50;;;20.30;56.90;;;;;;10516340;28;20444;-34
2022/09/15 23:37:28;;;;;;;3.55;0.40;;;19.80;56.50;;;;;;10524517;28;20135;-39
2022/09/15 23:42:31;;;;;;;1.60;0.52;;;20.40;56.40;;;;;;10517924;28;20050;-35
2022/09/15 23:47:33;;;;;;;2.17;0.65;;;20.10;56.30;;;;;;10521681;28;20048;-34
2022/09/15 23:52:35;;;;;;;4.13;0.60;;;19.70;57.70;;;;;;10524771;28;20487;-33
2022/09/15 23:57:38;;;;;;;3.05;0.60;;;19.00;56.50;;;;;;10527244;28;20097;-36
